Time;durP1;ratioP1;P1;durP2;ratioP2;P2;SDS_P1;SDS_P2;PMS_P1;PMS_P2;Temp;Humidity;BMP_temperature;BMP_pressure;BME280_temperature;BME280_humidity;BME280_pressure;Samples;Min_cycle;Max_cycle;Signal;HPM_P1;HPM_P2
2023/06/20 00:02:38;;;;;;;;;;;;;;;21.05;76.92;101151.84;12865238;23;19948;-70
2023/06/20 00:07:40;;;;;;;;;;;;;;;21.11;76.57;101144.06;12865476;23;19924;-70
2023/06/20 00:12:42;;;;;;;;;;;;;;;21.08;77.16;101140.88;12865366;23;19998;-70
2023/06/20 00:17:44;;;;;;;;;;;;;;;21.10;76.01;101144.25;12864156;23;19920;-70
2023/06/20 00:22:50;;;;;;;;;;;;;;;20.80;76.75;101132.06;12864757;23;19955;-70
2023/06/20 00:27:53;;;;;;;;;;;;;;;20.95;76.06;101126.09;12864130;23;20435;-70
2023/06/20 00:32:58;;;;;;;;;;;;;;;21.05;75.03;101131.38;12864190;23;19955;-70
2023/06/20 00:38:03;;;;;;;;;;;;;;;20.83;74.99;101129.94;12863784;23;20289;-70
2023/06/20 00:43:06;;;;;;;;;;;;;;;21.08;75.37;101122.25;12864335;23;19984;-70
2023/06/20 00:48:08;;;;;;;;;;;;;;;20.72;76.04;101122.97;12837649;23;19974;-70
2023/06/20 00:53:10;;;;;;;;;;;;;;;20.90;75.31;101123.03;12864184;23;19966;-70
2023/06/20 00:58:12;;;;;;;;;;;;;;;20.83;74.78;101121.97;12864571;23;19920;-70
2023/06/20 01:03:14;;;;;;;;;;;;;;;20.86;74.38;101110.16;12836879;23;20369;-70
2023/06/20 01:08:49;;;;;;;;;;;;;;;20.64;76.04;101106.91;12836832;23;20342;-70
2023/06/20 01:13:57;;;;;;;;;;;;;;;20.72;74.83;101101.69;12797774;23;20340;-70
2023/06/20 01:18:59;;;;;;;;;;;;;;;20.57;74.94;101108.44;12862495;23;20352;-70
2023/06/20 01:24:15;;;;;;;;;;;;;;;20.82;73.87;101101.66;12863239;23;19945;-70
2023/06/20 01:29:18;;;;;;;;;;;;;;;20.74;74.01;101101.53;12857436;23;20227;-70
2023/06/20 01:34:21;;;;;;;;;;;;;;;20.61;73.95;101091.22;12861503;23;19956;-70
2023/06/20 01:39:43;;;;;;;;;;;;;;;20.67;73.67;101084.50;12862378;23;19951;-70
2023/06/20 01:44:46;;;;;;;;;;;;;;;20.72;73.65;101092.88;12860666;23;19926;-70
2023/06/20 01:49:51;;;;;;;;;;;;;;;20.53;74.36;101085.78;12862517;23;19927;-70
2023/06/20 01:54:53;;;;;;;;;;;;;;;20.76;73.63;101094.25;12862045;23;19959;-70
2023/06/20 01:59:56;;;;;;;;;;;;;;;20.49;74.37;101082.56;12837112;23;19924;-70
2023/06/20 02:04:58;;;;;;;;;;;;;;;20.49;74.45;101082.56;12861001;23;19920;-70
2023/06/20 02:10:01;;;;;;;;;;;;;;;20.43;74.49;101080.50;12861091;23;20245;-70
2023/06/20 02:15:03;;;;;;;;;;;;;;;20.50;74.33;101075.44;12835649;23;19924;-70
2023/06/20 02:20:06;;;;;;;;;;;;;;;20.41;74.01;101071.84;12861701;23;19920;-70
2023/06/20 02:25:09;;;;;;;;;;;;;;;20.37;74.02;101067.78;12884873;23;19922;-70
2023/06/20 02:30:11;;;;;;;;;;;;;;;20.24;74.69;101062.81;12863013;23;19927;-70
2023/06/20 02:35:13;;;;;;;;;;;;;;;20.23;75.22;101056.63;12835869;23;20356;-70
2023/06/20 02:40:15;;;;;;;;;;;;;;;20.07;76.90;101055.56;12836229;23;19919;-70
2023/06/20 02:45:18;;;;;;;;;;;;;;;20.10;75.78;101052.63;12835473;23;19950;-70
2023/06/20 02:50:21;;;;;;;;;;;;;;;20.36;74.84;101052.84;12862909;23;19924;-70
2023/06/20 02:55:30;;;;;;;;;;;;;;;19.94;76.68;101046.09;12835655;23;19924;-70
2023/06/20 03:00:32;;;;;;;;;;;;;;;20.33;75.67;101051.28;12834815;23;19991;-70
2023/06/20 03:05:35;;;;;;;;;;;;;;;19.99;77.62;101054.47;12835159;23;19920;-70
2023/06/20 03:10:38;;;;;;;;;;;;;;;20.21;75.75;101053.28;12835629;23;19924;-70
2023/06/20 03:15:40;;;;;;;;;;;;;;;20.06;76.42;101051.25;12835557;23;20249;-70
2023/06/20 03:20:44;;;;;;;;;;;;;;;19.93;77.54;101041.75;12861472;23;19923;-70
2023/06/20 03:25:46;;;;;;;;;;;;;;;19.85;78.98;101042.47;12835394;23;19926;-70
2023/06/20 03:30:48;;;;;;;;;;;;;;;20.01;78.19;101039.22;12811945;23;19948;-70
2023/06/20 03:35:50;;;;;;;;;;;;;;;19.93;79.05;101038.25;12839775;23;19971;-70
2023/06/20 03:40:54;;;;;;;;;;;;;;;19.92;80.28;101041.88;12864599;23;20432;-70
2023/06/20 03:45:56;;;;;;;;;;;;;;;19.84;82.06;101045.28;12865515;23;19982;-70
2023/06/20 03:50:58;;;;;;;;;;;;;;;19.89;82.70;101040.38;12864999;23;19999;-70
2023/06/20 03:56:02;;;;;;;;;;;;;;;19.95;82.67;101033.63;12865775;23;19975;-70
2023/06/20 04:01:06;;;;;;;;;;;;;;;19.91;82.46;101027.78;12838540;23;20345;-70
2023/06/20 04:06:08;;;;;;;;;;;;;;;20.08;81.25;101031.50;12864302;23;19943;-70
2023/06/20 04:11:10;;;;;;;;;;;;;;;20.14;82.37;101028.28;12865059;23;19999;-70
2023/06/20 04:16:13;;;;;;;;;;;;;;;19.99;84.44;101035.88;12865308;23;19951;-70
2023/06/20 04:21:16;;;;;;;;;;;;;;;20.05;83.39;101042.41;12838263;23;20248;-70
2023/06/20 04:26:18;;;;;;;;;;;;;;;20.20;81.48;101045.47;12864288;23;19920;-70
2023/06/20 04:31:20;;;;;;;;;;;;;;;20.09;81.71;101041.16;12864624;23;19931;-70
2023/06/20 04:36:23;;;;;;;;;;;;;;;19.99;82.01;101038.53;12865113;23;19920;-70
2023/06/20 04:41:25;;;;;;;;;;;;;;;20.22;82.17;101036.38;12837612;23;19927;-71
2023/06/20 04:46:27;;;;;;;;;;;;;;;20.25;81.57;101043.19;12837777;23;19939;-71
2023/06/20 04:51:30;;;;;;;;;;;;;;;20.32;82.28;101043.47;12864553;23;19951;-71
2023/06/20 04:56:32;;;;;;;;;;;;;;;20.42;82.45;101046.91;12837573;23;20329;-71
2023/06/20 05:01:34;;;;;;;;;;;;;;;20.53;82.12;101040.59;12837150;23;19920;-71
2023/06/20 05:06:37;;;;;;;;;;;;;;;20.72;80.17;101037.00;12837703;23;19924;-71
2023/06/20 05:11:39;;;;;;;;;;;;;;;20.75;81.08;101029.56;12862740;23;20323;-71
2023/06/20 05:16:41;;;;;;;;;;;;;;;21.04;80.58;101035.69;12863158;23;19998;-71
2023/06/20 05:21:44;;;;;;;;;;;;;;;21.19;79.51;101039.50;12863264;23;19924;-71
2023/06/20 05:26:46;;;;;;;;;;;;;;;21.13;79.99;101042.75;12862667;23;19954;-70
2023/06/20 05:31:48;;;;;;;;;;;;;;;21.23;79.12;101030.25;12863833;23;19920;-71
2023/06/20 05:36:50;;;;;;;;;;;;;;;21.33;79.23;101032.81;12836319;23;19920;-69
2023/06/20 05:41:56;;;;;;;;;;;;;;;21.38;78.40;101024.34;12811479;23;19995;-70
2023/06/20 05:46:58;;;;;;;;;;;;;;;21.29;79.39;101018.13;12863925;23;19927;-70
2023/06/20 05:52:00;;;;;;;;;;;;;;;21.27;77.48;101010.28;12863229;23;19966;-70
2023/06/20 05:57:05;;;;;;;;;;;;;;;21.12;77.26;101009.16;12862317;23;19940;-70
2023/06/20 06:02:07;;;;;;;;;;;;;;;21.24;76.91;101007.94;12837592;23;19920;-70
2023/06/20 06:07:10;;;;;;;;;;;;;;;21.12;80.90;101009.16;12862146;23;20234;-70
2023/06/20 06:12:12;;;;;;;;;;;;;;;21.60;76.76;101005.28;12862757;23;19920;-70
2023/06/20 06:17:14;;;;;;;;;;;;;;;21.51;76.13;100996.38;12862059;23;20060;-70
2023/06/20 06:22:20;;;;;;;;;;;;;;;21.60;76.12;101005.28;12863211;23;19926;-70
2023/06/20 06:27:22;;;;;;;;;;;;;;;22.03;76.15;101000.88;12861782;23;19982;-70
2023/06/20 06:32:25;;;;;;;;;;;;;;;22.68;73.66;101010.19;12862918;23;19927;-70
2023/06/20 06:37:27;;;;;;;;;;;;;;;22.62;70.13;101001.00;12834560;23;20288;-70
2023/06/20 06:42:30;;;;;;;;;;;;;;;23.15;71.29;101006.16;12861928;23;20003;-70
2023/06/20 06:47:34;;;;;;;;;;;;;;;23.08;69.22;101011.31;12861487;23;20249;-70
2023/06/20 06:52:36;;;;;;;;;;;;;;;23.17;72.28;101010.31;12862764;23;19920;-70
2023/06/20 06:57:38;;;;;;;;;;;;;;;23.04;73.88;101022.47;12862859;23;19986;-70
2023/06/20 07:02:41;;;;;;;;;;;;;;;23.30;70.90;101035.69;12861141;23;19955;-70
2023/06/20 07:07:44;;;;;;;;;;;;;;;23.65;70.58;101017.66;12865658;23;19931;-70
2023/06/20 07:12:49;;;;;;;;;;;;;;;24.20;68.79;101019.59;12865816;23;19967;-70
2023/06/20 07:17:54;;;;;;;;;;;;;;;23.90;70.69;101013.97;12840169;23;19924;-70
2023/06/20 07:22:56;;;;;;;;;;;;;;;24.69;69.47;101023.91;12865112;23;19924;-70
2023/06/20 07:27:58;;;;;;;;;;;;;;;23.79;69.16;101021.47;12865421;23;20322;-70
2023/06/20 07:33:00;;;;;;;;;;;;;;;24.08;68.52;101023.66;12865333;23;19927;-70
2023/06/20 07:38:03;;;;;;;;;;;;;;;24.03;69.78;101024.16;12864951;23;19919;-70
2023/06/20 07:43:05;;;;;;;;;;;;;;;24.86;67.84;101003.25;12864429;23;19991;-71
2023/06/20 07:48:08;;;;;;;;;;;;;;;24.74;66.78;101004.66;12864719;23;20308;-72
2023/06/20 07:53:10;;;;;;;;;;;;;;;25.44;66.59;100997.50;12865627;23;19920;-72
2023/06/20 07:58:12;;;;;;;;;;;;;;;24.74;67.26;100997.47;12864474;23;20255;-73
2023/06/20 08:03:14;;;;;;;;;;;;;;;25.69;64.28;100973.97;12839280;23;19975;-72
2023/06/20 08:08:17;;;;;;;;;;;;;;;25.98;63.01;100967.00;12866929;23;19920;-72
2023/06/20 08:13:19;;;;;;;;;;;;;;;26.99;61.51;100967.16;12865421;23;19995;-73
2023/06/20 08:18:21;;;;;;;;;;;;;;;26.88;61.90;100971.16;12864538;23;20348;-73
2023/06/20 08:23:24;;;;;;;;;;;;;;;27.68;58.58;100969.16;12839029;23;19952;-72
2023/06/20 08:28:26;;;;;;;;;;;;;;;28.03;57.18;100963.81;12864230;23;20044;-73
2023/06/20 08:33:29;;;;;;;;;;;;;;;27.20;58.05;100952.84;12864193;23;19994;-72
2023/06/20 08:38:31;;;;;;;;;;;;;;;27.76;58.57;100950.19;12865010;23;19988;-73
2023/06/20 08:43:34;;;;;;;;;;;;;;;27.10;59.06;100949.66;12864425;22;19924;-65
2023/06/20 08:48:36;;;;;;;;;;;;;;;27.46;57.73;100957.66;12838670;23;19920;-66
2023/06/20 08:53:38;;;;;;;;;;;;;;;27.15;57.50;100960.66;12863734;23;19952;-66
2023/06/20 08:58:40;;;;;;;;;;;;;;;28.81;55.72;100960.78;12836992;23;20006;-66
2023/06/20 09:03:43;;;;;;;;;;;;;;;28.70;55.25;100964.09;12863877;23;19920;-66
2023/06/20 09:08:45;;;;;;;;;;;;;;;28.44;53.51;100962.13;12863679;23;20325;-66
2023/06/20 09:13:47;;;;;;;;;;;;;;;28.67;53.02;100969.88;12837223;23;20347;-66
2023/06/20 09:18:49;;;;;;;;;;;;;;;29.03;52.26;100958.75;12863493;23;20318;-66
2023/06/20 09:24:02;;;;;;;;;;;;;;;27.84;55.39;100959.97;12863433;23;20301;-66
2023/06/20 09:29:17;;;;;;;;;;;;;;;28.66;54.51;100958.25;12863856;23;19931;-66
2023/06/20 09:34:19;;;;;;;;;;;;;;;30.19;51.44;100940.31;12838313;23;19998;-66
2023/06/20 09:39:21;;;;;;;;;;;;;;;28.58;54.34;100949.56;12863970;23;19920;-66
2023/06/20 09:44:25;;;;;;;;;;;;;;;29.13;53.62;100939.47;12858543;23;19957;-66
2023/06/20 09:49:27;;;;;;;;;;;;;;;28.30;55.00;100955.88;12863820;23;19986;-66
2023/06/20 09:54:45;;;;;;;;;;;;;;;28.68;55.90;100952.69;12861407;23;19920;-65
2023/06/20 09:59:48;;;;;;;;;;;;;;;28.27;55.67;100958.97;12862614;23;20269;-66
2023/06/20 10:04:50;;;;;;;;;;;;;;;27.98;55.89;100961.72;12863075;23;19920;-66
2023/06/20 10:09:54;;;;;;;;;;;;;;;28.09;57.26;100967.56;12861276;23;20353;-66
2023/06/20 10:14:57;;;;;;;;;;;;;;;29.46;51.18;100952.13;12863472;23;19951;-66
2023/06/20 10:19:59;;;;;;;;;;;;;;;29.32;52.51;100948.63;12863935;23;19927;-66
2023/06/20 10:25:02;;;;;;;;;;;;;;;29.74;50.34;100940.25;12862928;23;19986;-66
2023/06/20 10:30:06;;;;;;;;;;;;;;;31.48;48.84;100932.78;12864250;23;19974;-66
2023/06/20 10:35:09;;;;;;;;;;;;;;;30.95;48.43;100937.84;12863619;23;19920;-66
2023/06/20 10:40:27;;;;;;;;;;;;;;;32.16;46.71;100920.22;12862549;23;19920;-66
2023/06/20 10:45:29;;;;;;;;;;;;;;;31.55;47.32;100915.69;12866659;23;19955;-66
2023/06/20 10:50:31;;;;;;;;;;;;;;;32.24;47.39;100926.34;12867243;23;19920;-66
2023/06/20 10:55:36;;;;;;;;;;;;;;;31.80;47.01;100919.16;12867086;23;19995;-66
2023/06/20 11:00:38;;;;;;;;;;;;;;;29.39;51.57;100917.09;12865189;23;19990;-66
2023/06/20 11:05:41;;;;;;;;;;;;;;;32.65;44.69;100900.34;12865374;23;19986;-66
2023/06/20 11:10:43;;;;;;;;;;;;;;;32.80;44.28;100906.19;12863220;23;19920;-66
2023/06/20 11:15:45;;;;;;;;;;;;;;;34.05;43.20;100889.69;12862786;23;19926;-67
2023/06/20 11:20:47;;;;;;;;;;;;;;;33.67;42.05;100891.06;12864452;23;19995;-66
2023/06/20 11:25:50;;;;;;;;;;;;;;;32.59;45.43;100872.28;12837900;23;19996;-66
2023/06/20 11:30:53;;;;;;;;;;;;;;;33.93;42.57;100870.72;12865896;23;19919;-66
2023/06/20 11:35:56;;;;;;;;;;;;;;;34.20;41.43;100868.28;12864951;23;19999;-67
2023/06/20 11:41:04;;;;;;;;;;;;;;;34.03;42.54;100853.81;12835411;23;19924;-66
2023/06/20 11:46:07;;;;;;;;;;;;;;;34.38;40.26;100850.94;12863522;23;19924;-66
2023/06/20 11:51:11;;;;;;;;;;;;;;;33.62;41.13;100856.50;12862597;23;19919;-66
2023/06/20 11:56:15;;;;;;;;;;;;;;;33.61;41.73;100860.28;12865356;23;19924;-66
2023/06/20 12:01:18;;;;;;;;;;;;;;;34.92;40.01;100845.00;12838821;23;19934;-66
2023/06/20 12:06:24;;;;;;;;;;;;;;;35.55;39.71;100847.50;12864913;23;19986;-66
2023/06/20 12:11:27;;;;;;;;;;;;;;;34.54;40.66;100837.59;12864743;23;19944;-66
2023/06/20 12:16:31;;;;;;;;;;;;;;;34.17;39.64;100844.28;12863240;23;19996;-67
2023/06/20 12:21:33;;;;;;;;;;;;;;;35.67;38.17;100853.63;12863775;23;19934;-66
2023/06/20 12:26:35;;;;;;;;;;;;;;;35.31;38.34;100838.78;12864394;23;19920;-66
2023/06/20 12:31:38;;;;;;;;;;;;;;;33.73;39.04;100838.56;12865268;23;19948;-66
2023/06/20 12:36:40;;;;;;;;;;;;;;;36.30;36.58;100836.06;12864964;23;19924;-66
2023/06/20 12:41:42;;;;;;;;;;;;;;;35.37;36.72;100835.03;12837546;23;19987;-67
2023/06/20 12:46:44;;;;;;;;;;;;;;;35.72;36.48;100833.81;12836081;23;20341;-66
2023/06/20 12:51:47;;;;;;;;;;;;;;;33.78;38.65;100818.84;12861153;23;20313;-66
2023/06/20 12:56:49;;;;;;;;;;;;;;;35.34;36.40;100819.22;12863772;23;20003;-66
2023/06/20 13:01:51;;;;;;;;;;;;;;;35.00;36.43;100818.44;12863119;23;19954;-66
2023/06/20 13:06:53;;;;;;;;;;;;;;;36.12;35.30;100816.28;12862118;23;19920;-66
2023/06/20 13:11:56;;;;;;;;;;;;;;;35.34;37.75;100792.81;12863479;23;19987;-66
2023/06/20 13:16:59;;;;;;;;;;;;;;;33.54;37.76;100794.47;12863497;23;20007;-66
2023/06/20 13:22:02;;;;;;;;;;;;;;;35.68;36.61;100792.66;12860896;23;19926;-66
2023/06/20 13:27:04;;;;;;;;;;;;;;;35.25;36.57;100794.31;12863703;23;19938;-66
2023/06/20 13:32:06;;;;;;;;;;;;;;;35.35;36.63;100786.28;12863902;23;19987;-66
2023/06/20 13:37:09;;;;;;;;;;;;;;;34.27;36.47;100780.34;12862731;23;20299;-66
2023/06/20 13:42:11;;;;;;;;;;;;;;;34.36;38.94;100787.00;12863232;23;19988;-66
2023/06/20 13:47:14;;;;;;;;;;;;;;;33.88;39.64;100781.03;12862046;23;20344;-66
2023/06/20 13:52:16;;;;;;;;;;;;;;;34.13;38.34;100769.78;12863441;23;19920;-66
2023/06/20 13:57:19;;;;;;;;;;;;;;;34.83;37.92;100769.53;12863546;23;19987;-66
2023/06/20 14:02:21;;;;;;;;;;;;;;;34.56;38.14;100754.72;12862901;23;19920;-66
2023/06/20 14:07:23;;;;;;;;;;;;;;;32.57;39.29;100763.31;12862664;23;19920;-66
2023/06/20 14:12:26;;;;;;;;;;;;;;;33.83;38.07;100745.63;12862155;23;20249;-66
2023/06/20 14:17:28;;;;;;;;;;;;;;;35.56;36.84;100737.53;12862410;23;20313;-66
2023/06/20 14:22:30;;;;;;;;;;;;;;;34.42;37.12;100735.22;12863267;23;19920;-66
2023/06/20 14:27:32;;;;;;;;;;;;;;;33.92;39.76;100735.19;12863207;23;19939;-66
2023/06/20 14:32:35;;;;;;;;;;;;;;;33.07;39.31;100729.44;12862926;23;20010;-66
2023/06/20 14:37:37;;;;;;;;;;;;;;;33.61;39.41;100731.91;12863075;23;19987;-66
2023/06/20 14:42:39;;;;;;;;;;;;;;;33.47;40.30;100732.19;12862390;23;19919;-66
2023/06/20 14:47:42;;;;;;;;;;;;;;;33.36;40.48;100715.97;12862973;23;19970;-66
2023/06/20 14:52:44;;;;;;;;;;;;;;;33.21;40.56;100714.59;12836098;23;19956;-66
2023/06/20 14:57:46;;;;;;;;;;;;;;;31.95;41.42;100690.53;12862777;23;20241;-66
2023/06/20 15:02:48;;;;;;;;;;;;;;;31.84;42.28;100684.88;12863100;23;19920;-66
2023/06/20 15:07:51;;;;;;;;;;;;;;;31.78;42.89;100671.44;12862773;23;19920;-65
2023/06/20 15:12:53;;;;;;;;;;;;;;;31.70;43.37;100666.38;12862613;23;20003;-65
2023/06/20 15:17:56;;;;;;;;;;;;;;;31.35;44.58;100675.16;12862063;23;19940;-66
2023/06/20 15:22:58;;;;;;;;;;;;;;;30.65;44.18;100671.81;12861369;23;19920;-66
2023/06/20 15:28:01;;;;;;;;;;;;;;;30.79;46.21;100674.38;12863200;23;20002;-65
2023/06/20 15:33:04;;;;;;;;;;;;;;;30.47;45.04;100664.50;12838673;23;19998;-65
2023/06/20 15:38:06;;;;;;;;;;;;;;;30.33;48.88;100654.88;12866097;23;19939;-65
2023/06/20 15:43:08;;;;;;;;;;;;;;;30.06;47.69;100641.59;12864923;23;19926;-65
2023/06/20 15:48:10;;;;;;;;;;;;;;;29.45;49.24;100654.66;12865840;23;19967;-65
2023/06/20 15:53:13;;;;;;;;;;;;;;;28.60;53.11;100761.69;12865330;23;19920;-65
2023/06/20 15:58:15;;;;;;;;;;;;;;;28.01;56.49;100766.78;12865194;23;20006;-66
2023/06/20 16:03:17;;;;;;;;;;;;;;;26.77;62.30;100771.09;12864597;23;19943;-65
2023/06/20 16:08:20;;;;;;;;;;;;;;;26.50;69.50;100735.13;12865320;23;19994;-65
2023/06/20 16:13:22;;;;;;;;;;;;;;;25.80;77.00;100726.81;12865698;23;19926;-64
2023/06/20 16:18:25;;;;;;;;;;;;;;;24.10;88.25;100783.59;12863440;23;20003;-64
2023/06/20 16:23:28;;;;;;;;;;;;;;;24.11;99.76;100828.06;12863664;23;20336;-62
2023/06/20 16:28:39;;;;;;;;;;;;;;;23.98;100.00;100865.25;12862967;23;19923;-64
2023/06/20 16:33:42;;;;;;;;;;;;;;;23.73;100.00;100769.91;12863932;23;19920;-63
2023/06/20 16:38:53;;;;;;;;;;;;;;;22.98;100.00;100829.88;12865077;23;20329;-63
2023/06/20 16:43:55;;;;;;;;;;;;;;;23.03;100.00;100864.06;12864232;23;19924;-64
2023/06/20 16:48:57;;;;;;;;;;;;;;;23.50;100.00;100874.06;12863670;23;19920;-64
2023/06/20 16:54:00;;;;;;;;;;;;;;;23.58;100.00;100853.66;12863988;23;20343;-64
2023/06/20 16:59:03;;;;;;;;;;;;;;;23.48;100.00;100857.34;12864087;23;19920;-63
2023/06/20 17:04:05;;;;;;;;;;;;;;;22.79;100.00;100854.25;12863669;23;19987;-63
2023/06/20 17:09:07;;;;;;;;;;;;;;;23.32;100.00;100855.56;12864022;23;20003;-63
2023/06/20 17:14:09;;;;;;;;;;;;;;;23.05;100.00;100851.41;12864154;23;19998;-62
2023/06/20 17:19:12;;;;;;;;;;;;;;;22.55;100.00;100863.09;12861587;23;20304;-62
2023/06/20 17:24:15;;;;;;;;;;;;;;;;;;12837111;23;20003;-62
2023/06/20 17:29:17;;;;;;;;;;;;;;;22.95;100.00;100856.09;12863344;23;20360;-63
2023/06/20 17:34:19;;;;;;;;;;;;;;;22.19;100.00;100866.81;12863355;23;19999;-62
2023/06/20 17:39:22;;;;;;;;;;;;;;;22.47;100.00;100874.56;12863527;23;19919;-62
2023/06/20 17:44:24;;;;;;;;;;;;;;;22.96;100.00;100871.94;12862944;23;19920;-63
2023/06/20 17:49:26;;;;;;;;;;;;;;;22.58;100.00;100865.44;12863143;23;19919;-63
2023/06/20 17:54:29;;;;;;;;;;;;;;;23.14;100.00;100878.97;12836547;23;19955;-63
2023/06/20 17:59:31;;;;;;;;;;;;;;;22.66;100.00;100888.59;12835926;23;20417;-63
2023/06/20 18:04:33;;;;;;;;;;;;;;;22.97;100.00;100888.78;12861645;23;19927;-62
2023/06/20 18:09:35;;;;;;;;;;;;;;;22.95;100.00;100902.31;12834066;23;20349;-62
2023/06/20 18:14:38;;;;;;;;;;;;;;;22.78;100.00;100904.13;12863028;23;19955;-62
2023/06/20 18:19:40;;;;;;;;;;;;;;;22.68;100.00;100910.59;12861420;23;19987;-63
2023/06/20 18:24:57;;;;;;;;;;;;;;;22.98;100.00;100909.13;12859946;23;19947;-63
2023/06/20 18:29:59;;;;;;;;;;;;;;;23.04;100.00;100910.31;12861541;23;19940;-63
2023/06/20 18:35:02;;;;;;;;;;;;;;;23.08;100.00;100911.66;12861669;23;19926;-63
2023/06/20 18:40:06;;;;;;;;;;;;;;;22.63;100.00;100911.13;12860369;23;20360;-63
2023/06/20 18:45:09;;;;;;;;;;;;;;;22.99;100.00;100908.97;12860616;23;20248;-63
2023/06/20 18:50:12;;;;;;;;;;;;;;;22.59;100.00;100904.44;12861538;23;19920;-63
2023/06/20 18:55:14;;;;;;;;;;;;;;;22.87;100.00;100912.16;12861279;23;20345;-63
2023/06/20 19:00:16;;;;;;;;;;;;;;;22.85;100.00;100908.78;12861952;23;19920;-63
2023/06/20 19:05:19;;;;;;;;;;;;;;;22.67;100.00;100915.13;12866120;23;20361;-63
2023/06/20 19:10:23;;;;;;;;;;;;;;;22.55;100.00;100911.09;12859185;23;20129;-63
2023/06/20 19:15:26;;;;;;;;;;;;;;;22.47;100.00;100933.25;12858722;23;20241;-63
2023/06/20 19:20:29;;;;;;;;;;;;;;;22.56;100.00;100937.63;12862144;23;19920;-63
2023/06/20 19:25:32;;;;;;;;;;;;;;;22.94;100.00;100915.81;12865615;23;19920;-63
2023/06/20 19:30:34;;;;;;;;;;;;;;;22.67;100.00;100939.13;12864656;23;19920;-63
2023/06/20 19:35:36;;;;;;;;;;;;;;;22.53;100.00;100943.28;12865182;23;19920;-63
2023/06/20 19:40:40;;;;;;;;;;;;;;;22.09;100.00;100964.75;12864399;23;20356;-63
2023/06/20 19:45:42;;;;;;;;;;;;;;;22.02;100.00;100961.03;12864700;23;20298;-63
2023/06/20 19:50:47;;;;;;;;;;;;;;;21.75;100.00;100978.88;12865213;23;19920;-63
2023/06/20 19:55:49;;;;;;;;;;;;;;;21.91;100.00;100994.16;12865518;23;19920;-63
2023/06/20 20:00:51;;;;;;;;;;;;;;;22.10;100.00;101014.41;12863323;23;19920;-63
2023/06/20 20:05:54;;;;;;;;;;;;;;;22.32;100.00;101042.38;12864101;23;20316;-63
2023/06/20 20:10:56;;;;;;;;;;;;;;;22.68;100.00;101038.69;12864811;23;19939;-63
2023/06/20 20:15:59;;;;;;;;;;;;;;;22.36;100.00;101040.22;12837585;23;19920;-62
2023/06/20 20:21:01;;;;;;;;;;;;;;;22.55;100.00;101045.34;12863781;23;19969;-62
2023/06/20 20:26:03;;;;;;;;;;;;;;;22.24;100.00;101043.16;12864135;23;19951;-62
2023/06/20 20:31:05;;;;;;;;;;;;;;;22.11;100.00;101050.75;12863567;23;19995;-63
2023/06/20 20:36:08;;;;;;;;;;;;;;;21.98;100.00;101053.81;12864205;23;19920;-63
2023/06/20 20:41:10;;;;;;;;;;;;;;;22.19;100.00;101040.13;12863953;23;19926;-62
2023/06/20 20:46:18;;;;;;;;;;;;;;;21.70;100.00;101053.97;12837281;23;19920;-61
2023/06/20 20:51:21;;;;;;;;;;;;;;;21.76;100.00;101041.84;12863974;23;19927;-61
2023/06/20 20:56:23;;;;;;;;;;;;;;;21.30;100.00;101047.28;12863752;22;19927;-64
2023/06/20 21:01:25;;;;;;;;;;;;;;;21.27;100.00;101057.41;12863161;23;20363;-66
2023/06/20 21:06:28;;;;;;;;;;;;;;;21.27;100.00;101066.22;12863318;23;19927;-66
2023/06/20 21:11:30;;;;;;;;;;;;;;;21.25;100.00;101080.66;12861771;23;19920;-66
2023/06/20 21:16:32;;;;;;;;;;;;;;;21.25;100.00;101085.97;12836034;23;19951;-68
2023/06/20 21:21:34;;;;;;;;;;;;;;;21.22;100.00;101081.81;12864309;23;19978;-67
2023/06/20 21:26:37;;;;;;;;;;;;;;;21.22;100.00;101086.31;12862498;23;19919;-67
2023/06/20 21:31:39;;;;;;;;;;;;;;;21.17;100.00;101105.38;12864167;23;19926;-67
2023/06/20 21:36:41;;;;;;;;;;;;;;;21.04;100.00;101104.91;12863922;23;19926;-67
2023/06/20 21:41:43;;;;;;;;;;;;;;;21.07;100.00;101093.97;12863135;23;19923;-68
2023/06/20 21:46:45;;;;;;;;;;;;;;;20.97;100.00;101094.00;12862583;23;20356;-68
2023/06/20 21:51:48;;;;;;;;;;;;;;;21.12;100.00;101100.50;12836294;23;19946;-67
2023/06/20 21:56:50;;;;;;;;;;;;;;;21.18;100.00;101099.06;12863058;23;19998;-67
2023/06/20 22:01:52;;;;;;;;;;;;;;;21.05;100.00;101102.09;12862821;23;19920;-67
2023/06/20 22:06:55;;;;;;;;;;;;;;;21.06;100.00;101090.44;12863050;23;19931;-67
2023/06/20 22:11:57;;;;;;;;;;;;;;;20.97;100.00;101089.53;12862153;23;20319;-67
2023/06/20 22:16:59;;;;;;;;;;;;;;;20.84;100.00;101099.66;12863306;23;19927;-67
2023/06/20 22:22:01;;;;;;;;;;;;;;;21.32;100.00;101111.03;12863368;23;19935;-67
2023/06/20 22:27:04;;;;;;;;;;;;;;;21.06;100.00;101111.72;12862043;23;20365;-67
2023/06/20 22:32:06;;;;;;;;;;;;;;;20.88;100.00;101108.19;12862747;23;19934;-67
2023/06/20 22:37:08;;;;;;;;;;;;;;;20.81;100.00;101107.94;12839609;23;19998;-67
2023/06/20 22:42:11;;;;;;;;;;;;;;;21.04;100.00;101104.91;12867247;23;19994;-67
2023/06/20 22:47:13;;;;;;;;;;;;;;;21.16;100.00;101106.34;12840675;23;19926;-67
2023/06/20 22:52:15;;;;;;;;;;;;;;;20.88;100.00;101105.53;12866148;23;20328;-67
2023/06/20 22:57:17;;;;;;;;;;;;;;;20.95;100.00;101096.00;12866494;23;19991;-67
2023/06/20 23:02:19;;;;;;;;;;;;;;;21.08;100.00;101093.81;12867131;23;19923;-67
2023/06/20 23:07:23;;;;;;;;;;;;;;;20.75;100.00;101116.53;12866628;23;19919;-67
2023/06/20 23:12:25;;;;;;;;;;;;;;;21.07;100.00;101101.94;12866472;23;19924;-67
2023/06/20 23:17:27;;;;;;;;;;;;;;;20.65;100.00;101119.22;12866617;23;19920;-67
2023/06/20 23:22:30;;;;;;;;;;;;;;;20.51;100.00;101111.69;12866666;23;19920;-67
2023/06/20 23:27:37;;;;;;;;;;;;;;;20.49;100.00;101135.75;12865065;23;20315;-67
2023/06/20 23:32:39;;;;;;;;;;;;;;;20.66;100.00;101128.03;12865314;23;19998;-67
2023/06/20 23:37:42;;;;;;;;;;;;;;;20.73;100.00;101126.50;12866241;23;19947;-67
2023/06/20 23:42:44;;;;;;;;;;;;;;;20.64;100.00;101127.34;12865844;23;19920;-67
2023/06/20 23:47:46;;;;;;;;;;;;;;;20.42;100.00;101129.34;12839134;23;19920;-67
2023/06/20 23:52:52;;;;;;;;;;;;;;;20.28;100.00;101122.66;12864692;23;20257;-67
2023/06/20 23:57:54;;;;;;;;;;;;;;;20.12;100.00;101136.53;12865120;23;19927;-67
